EZY96ME EGKK-LOWI
Flight info
| Callsign | EZY96ME |
|---|---|
| Flight time | 1h 40m |
| Altitude | 37000 |
| Route | DVR L9 KONAN DCT KOK UL607 FERDI DCT REMBA DCT LIRSU DCT KRH DCT TEDGO/N0446F350 DCT BATUB/N0435F310 M738 MADEB MADEB1B |
| Aircraft | A320/M-SDE3FGHIRWY/LB1 |
Departure
| Time | 2026-05-06 08:31 |
|---|---|
| Airport | London Gatwick Airport (EGKK) |
Arrival
| Time | 2026-05-06 10:12 |
|---|---|
| Airport | Innsbruck Airport (LOWI) |
| Time | Latitude | Longitude | Altitude | Speed | Heading |
|---|---|---|---|---|---|
| 2026-05-06 07:53 | 51.15817 | -0.17954 | 214 ft | 0 kts | 78° |
| 2026-05-06 08:19 | 51.15814 | -0.17978 | 217 ft | 2 kts | 83° |
| 2026-05-06 08:19 | 51.15812 | -0.18004 | 215 ft | 2 kts | 86° |
| 2026-05-06 08:19 | 51.15812 | -0.18030 | 217 ft | 2 kts | 99° |
| 2026-05-06 08:20 | 51.15816 | -0.18055 | 213 ft | 2 kts | 120° |
| 2026-05-06 08:20 | 51.15826 | -0.18075 | 217 ft | 2 kts | 156° |
| 2026-05-06 08:20 | 51.15836 | -0.18082 | 217 ft | 1 kts | 168° |
| 2026-05-06 08:20 | 51.15837 | -0.18082 | 217 ft | 0 kts | 168° |
| 2026-05-06 08:21 | 51.15836 | -0.18082 | 217 ft | 0 kts | 168° |
| 2026-05-06 08:21 | 51.15834 | -0.18081 | 217 ft | 1 kts | 168° |
| 2026-05-06 08:21 | 51.15833 | -0.18080 | 217 ft | 0 kts | 168° |
| 2026-05-06 08:23 | 51.15829 | -0.18079 | 205 ft | 3 kts | 168° |
| 2026-05-06 08:23 | 51.15774 | -0.18061 | 209 ft | 11 kts | 168° |
| 2026-05-06 08:23 | 51.15704 | -0.18049 | 214 ft | 9 kts | 196° |
| 2026-05-06 08:23 | 51.15675 | -0.18135 | 209 ft | 11 kts | 259° |
| 2026-05-06 08:24 | 51.15630 | -0.18241 | 209 ft | 14 kts | 187° |
| 2026-05-06 08:24 | 51.15530 | -0.18208 | 205 ft | 14 kts | 166° |
| 2026-05-06 08:24 | 51.15441 | -0.18167 | 207 ft | 13 kts | 164° |
| 2026-05-06 08:24 | 51.15359 | -0.18138 | 211 ft | 12 kts | 169° |
| 2026-05-06 08:25 | 51.15253 | -0.18103 | 208 ft | 15 kts | 167° |
| 2026-05-06 08:25 | 51.15199 | -0.18191 | 212 ft | 12 kts | 257° |
| 2026-05-06 08:25 | 51.15184 | -0.18310 | 213 ft | 10 kts | 264° |
| 2026-05-06 08:25 | 51.15172 | -0.18435 | 214 ft | 16 kts | 256° |
| 2026-05-06 08:26 | 51.15141 | -0.18660 | 207 ft | 23 kts | 256° |
| 2026-05-06 08:26 | 51.15106 | -0.18915 | 206 ft | 24 kts | 258° |
| 2026-05-06 08:26 | 51.15071 | -0.19178 | 209 ft | 25 kts | 258° |
| 2026-05-06 08:26 | 51.15034 | -0.19456 | 205 ft | 26 kts | 258° |
| 2026-05-06 08:27 | 51.14992 | -0.19743 | 205 ft | 27 kts | 257° |
| 2026-05-06 08:27 | 51.14953 | -0.20043 | 212 ft | 28 kts | 257° |
| 2026-05-06 08:27 | 51.14909 | -0.20353 | 209 ft | 29 kts | 258° |
| 2026-05-06 08:27 | 51.14867 | -0.20672 | 208 ft | 30 kts | 258° |
| 2026-05-06 08:28 | 51.14819 | -0.20994 | 207 ft | 30 kts | 257° |
| 2026-05-06 08:28 | 51.14773 | -0.21286 | 205 ft | 25 kts | 261° |
| 2026-05-06 08:28 | 51.14731 | -0.21398 | 207 ft | 0 kts | 204° |
| 2026-05-06 08:29 | 51.14730 | -0.21399 | 207 ft | 2 kts | 204° |
| 2026-05-06 08:29 | 51.14670 | -0.21374 | 207 ft | 17 kts | 138° |
| 2026-05-06 08:29 | 51.14608 | -0.21326 | 208 ft | 0 kts | 167° |
| 2026-05-06 08:30 | 51.14591 | -0.21320 | 210 ft | 9 kts | 166° |
| 2026-05-06 08:30 | 51.14519 | -0.21195 | 209 ft | 23 kts | 90° |
| 2026-05-06 08:30 | 51.14583 | -0.20721 | 218 ft | 77 kts | 77° |
| 2026-05-06 08:31 | 51.14745 | -0.19557 | 211 ft | 136 kts | 77° |
| 2026-05-06 08:31 | 51.14975 | -0.17872 | 301 ft | 172 kts | 77° |
| 2026-05-06 08:31 | 51.15250 | -0.15929 | 792 ft | 184 kts | 73° |
| 2026-05-06 08:31 | 51.15516 | -0.13978 | 1596 ft | 184 kts | 74° |
| 2026-05-06 08:32 | 51.15791 | -0.11888 | 1985 ft | 204 kts | 75° |
| 2026-05-06 08:32 | 51.16095 | -0.09567 | 2330 ft | 226 kts | 75° |
| 2026-05-06 08:32 | 51.16432 | -0.06997 | 2911 ft | 244 kts | 75° |
| 2026-05-06 08:32 | 51.16781 | -0.04310 | 3715 ft | 252 kts | 74° |
| 2026-05-06 08:33 | 51.17139 | -0.01534 | 4543 ft | 258 kts | 74° |
| 2026-05-06 08:33 | 51.17508 | 0.01308 | 5413 ft | 265 kts | 73° |
| 2026-05-06 08:33 | 51.17739 | 0.04273 | 6216 ft | 276 kts | 86° |
| 2026-05-06 08:33 | 51.17737 | 0.07367 | 7040 ft | 281 kts | 87° |
| 2026-05-06 08:34 | 51.17718 | 0.10488 | 7898 ft | 284 kts | 87° |
| 2026-05-06 08:34 | 51.17668 | 0.16769 | 9598 ft | 290 kts | 89° |
| 2026-05-06 08:34 | 51.17645 | 0.20001 | 10353 ft | 296 kts | 88° |
| 2026-05-06 08:35 | 51.17624 | 0.23412 | 10605 ft | 320 kts | 88° |
| 2026-05-06 08:35 | 51.17601 | 0.27074 | 10923 ft | 338 kts | 90° |
| 2026-05-06 08:35 | 51.17573 | 0.30867 | 11556 ft | 345 kts | 89° |
| 2026-05-06 08:35 | 51.17539 | 0.34723 | 12235 ft | 351 kts | 89° |
| 2026-05-06 08:36 | 51.17504 | 0.38635 | 12946 ft | 355 kts | 90° |
| 2026-05-06 08:36 | 51.17466 | 0.42584 | 13675 ft | 358 kts | 89° |
| 2026-05-06 08:36 | 51.17428 | 0.46580 | 14278 ft | 364 kts | 90° |
| 2026-05-06 08:36 | 51.17391 | 0.50627 | 14910 ft | 367 kts | 90° |
| 2026-05-06 08:37 | 51.17354 | 0.54702 | 15561 ft | 369 kts | 90° |
| 2026-05-06 08:37 | 51.17294 | 0.58814 | 16128 ft | 374 kts | 91° |
| 2026-05-06 08:37 | 51.17204 | 0.62928 | 16711 ft | 377 kts | 92° |
| 2026-05-06 08:37 | 51.17093 | 0.67127 | 17314 ft | 380 kts | 92° |
| 2026-05-06 08:38 | 51.16973 | 0.71363 | 17865 ft | 385 kts | 91° |
| 2026-05-06 08:38 | 51.16853 | 0.75652 | 18415 ft | 389 kts | 92° |
| 2026-05-06 08:38 | 51.16735 | 0.79964 | 18958 ft | 391 kts | 92° |
| 2026-05-06 08:38 | 51.16620 | 0.84315 | 19432 ft | 395 kts | 92° |
| 2026-05-06 08:39 | 51.16509 | 0.88711 | 19959 ft | 398 kts | 92° |
| 2026-05-06 08:39 | 51.16398 | 0.93126 | 20508 ft | 400 kts | 92° |
| 2026-05-06 08:39 | 51.16282 | 0.97583 | 21003 ft | 403 kts | 92° |
| 2026-05-06 08:39 | 51.16162 | 1.02054 | 21614 ft | 404 kts | 92° |
| 2026-05-06 08:40 | 51.16040 | 1.06535 | 22162 ft | 406 kts | 93° |
| 2026-05-06 08:40 | 51.15915 | 1.11059 | 22650 ft | 410 kts | 93° |
| 2026-05-06 08:40 | 51.15782 | 1.15612 | 23183 ft | 412 kts | 93° |
| 2026-05-06 08:40 | 51.15646 | 1.20180 | 23638 ft | 415 kts | 94° |
| 2026-05-06 08:41 | 51.15509 | 1.24784 | 24019 ft | 418 kts | 93° |
| 2026-05-06 08:41 | 51.15373 | 1.29424 | 24440 ft | 419 kts | 93° |
| 2026-05-06 08:41 | 51.15238 | 1.34020 | 24795 ft | 422 kts | 94° |
| 2026-05-06 08:41 | 51.15098 | 1.38707 | 25164 ft | 424 kts | 93° |
| 2026-05-06 08:42 | 51.14958 | 1.43411 | 25552 ft | 426 kts | 92° |
| 2026-05-06 08:42 | 51.14814 | 1.48130 | 25924 ft | 428 kts | 93° |
| 2026-05-06 08:42 | 51.14665 | 1.52864 | 26299 ft | 429 kts | 93° |
| 2026-05-06 08:42 | 51.14514 | 1.57614 | 26671 ft | 430 kts | 94° |
| 2026-05-06 08:43 | 51.14361 | 1.62390 | 27013 ft | 433 kts | 94° |
| 2026-05-06 08:43 | 51.14204 | 1.67183 | 27379 ft | 434 kts | 94° |
| 2026-05-06 08:43 | 51.14042 | 1.71992 | 27706 ft | 436 kts | 94° |
| 2026-05-06 08:43 | 51.13877 | 1.76824 | 28033 ft | 438 kts | 93° |
| 2026-05-06 08:44 | 51.13768 | 1.80041 | 28254 ft | 439 kts | 94° |
| 2026-05-06 08:44 | 51.13602 | 1.84910 | 28571 ft | 441 kts | 94° |
| 2026-05-06 08:44 | 51.13434 | 1.89799 | 28849 ft | 443 kts | 94° |
| 2026-05-06 08:44 | 51.13263 | 1.94696 | 29234 ft | 443 kts | 94° |
| 2026-05-06 08:45 | 51.13032 | 2.01185 | 29677 ft | 444 kts | 95° |
| 2026-05-06 08:45 | 51.12893 | 2.04503 | 29875 ft | 444 kts | 95° |
| 2026-05-06 08:45 | 51.12649 | 2.09420 | 30124 ft | 446 kts | 96° |
| 2026-05-06 08:45 | 51.12375 | 2.14286 | 30346 ft | 447 kts | 95° |
| 2026-05-06 08:46 | 51.12084 | 2.19219 | 30558 ft | 449 kts | 96° |
| 2026-05-06 08:46 | 51.11791 | 2.24174 | 30763 ft | 450 kts | 96° |
| 2026-05-06 08:46 | 51.11503 | 2.29147 | 30978 ft | 451 kts | 96° |
| 2026-05-06 08:46 | 51.11222 | 2.34117 | 31261 ft | 451 kts | 96° |
| 2026-05-06 08:47 | 51.10946 | 2.39074 | 31555 ft | 450 kts | 96° |
| 2026-05-06 08:47 | 51.10674 | 2.44024 | 31862 ft | 448 kts | 95° |
| 2026-05-06 08:47 | 51.10403 | 2.48962 | 32141 ft | 448 kts | 95° |
| 2026-05-06 08:47 | 51.10127 | 2.53897 | 32423 ft | 447 kts | 96° |
| 2026-05-06 08:48 | 51.09846 | 2.58825 | 32699 ft | 447 kts | 95° |
| 2026-05-06 08:48 | 51.09535 | 2.63743 | 32977 ft | 446 kts | 99° |
| 2026-05-06 08:48 | 51.08873 | 2.68561 | 33241 ft | 446 kts | 107° |
| 2026-05-06 08:48 | 51.08009 | 2.73302 | 33508 ft | 446 kts | 106° |
| 2026-05-06 08:49 | 51.07150 | 2.78034 | 33782 ft | 446 kts | 106° |
| 2026-05-06 08:49 | 51.06302 | 2.82699 | 34017 ft | 445 kts | 106° |
| 2026-05-06 08:49 | 51.05431 | 2.87487 | 34269 ft | 445 kts | 106° |
| 2026-05-06 08:49 | 51.04571 | 2.92205 | 34513 ft | 444 kts | 106° |
| 2026-05-06 08:50 | 51.03724 | 2.96854 | 34724 ft | 444 kts | 106° |
| 2026-05-06 08:50 | 51.02863 | 3.01566 | 34914 ft | 444 kts | 107° |
| 2026-05-06 08:50 | 51.01997 | 3.06277 | 35086 ft | 445 kts | 107° |
| 2026-05-06 08:50 | 51.01127 | 3.10995 | 35263 ft | 445 kts | 107° |
| 2026-05-06 08:51 | 51.00256 | 3.15722 | 35439 ft | 446 kts | 108° |
| 2026-05-06 08:51 | 50.99383 | 3.20445 | 35609 ft | 446 kts | 107° |
| 2026-05-06 08:51 | 50.98502 | 3.25179 | 35770 ft | 447 kts | 108° |
| 2026-05-06 08:51 | 50.97619 | 3.29904 | 35930 ft | 447 kts | 108° |
| 2026-05-06 08:52 | 50.96733 | 3.34645 | 36066 ft | 448 kts | 107° |
| 2026-05-06 08:52 | 50.95846 | 3.39382 | 36215 ft | 449 kts | 107° |
| 2026-05-06 08:52 | 50.94955 | 3.44129 | 36353 ft | 449 kts | 108° |
| 2026-05-06 08:52 | 50.94060 | 3.48877 | 36501 ft | 450 kts | 108° |
| 2026-05-06 08:53 | 50.93162 | 3.53630 | 36658 ft | 450 kts | 108° |
| 2026-05-06 08:53 | 50.92262 | 3.58385 | 36810 ft | 450 kts | 109° |
| 2026-05-06 08:53 | 50.91365 | 3.63132 | 36881 ft | 450 kts | 109° |
| 2026-05-06 08:54 | 50.89573 | 3.72621 | 36880 ft | 450 kts | 108° |
| 2026-05-06 08:54 | 50.87763 | 3.82122 | 36879 ft | 451 kts | 108° |
| 2026-05-06 08:55 | 50.85934 | 3.91624 | 36877 ft | 451 kts | 109° |
| 2026-05-06 08:55 | 50.84110 | 4.01057 | 36873 ft | 451 kts | 108° |
| 2026-05-06 08:56 | 50.82273 | 4.10549 | 36875 ft | 451 kts | 109° |
| 2026-05-06 08:56 | 50.80423 | 4.20042 | 36877 ft | 452 kts | 108° |
| 2026-05-06 08:57 | 50.78562 | 4.29535 | 36873 ft | 451 kts | 109° |
| 2026-05-06 08:57 | 50.76699 | 4.39005 | 36876 ft | 451 kts | 109° |
| 2026-05-06 08:58 | 50.74825 | 4.48458 | 36878 ft | 451 kts | 109° |
| 2026-05-06 08:58 | 50.72947 | 4.57907 | 36879 ft | 451 kts | 109° |
| 2026-05-06 08:59 | 50.71069 | 4.67351 | 36870 ft | 451 kts | 109° |
| 2026-05-06 08:59 | 50.69177 | 4.76787 | 36871 ft | 451 kts | 109° |
| 2026-05-06 09:00 | 50.67284 | 4.86149 | 36863 ft | 451 kts | 109° |
| 2026-05-06 09:00 | 50.65041 | 4.95353 | 36861 ft | 449 kts | 117° |
| 2026-05-06 09:01 | 50.62371 | 5.04238 | 36859 ft | 449 kts | 117° |
| 2026-05-06 09:01 | 50.59701 | 5.13127 | 36846 ft | 449 kts | 117° |
| 2026-05-06 09:02 | 50.57012 | 5.21997 | 36844 ft | 449 kts | 117° |
| 2026-05-06 09:02 | 50.54315 | 5.30859 | 36849 ft | 449 kts | 117° |
| 2026-05-06 09:03 | 50.51609 | 5.39718 | 36849 ft | 449 kts | 118° |
| 2026-05-06 09:03 | 50.48910 | 5.48569 | 36855 ft | 449 kts | 118° |
| 2026-05-06 09:04 | 50.46207 | 5.57414 | 36843 ft | 449 kts | 118° |
| 2026-05-06 09:04 | 50.43482 | 5.66224 | 36853 ft | 449 kts | 118° |
| 2026-05-06 09:05 | 50.40754 | 5.75027 | 36838 ft | 448 kts | 118° |
| 2026-05-06 09:05 | 50.38057 | 5.83768 | 36843 ft | 448 kts | 118° |
| 2026-05-06 09:06 | 50.35323 | 5.92543 | 36823 ft | 448 kts | 118° |
| 2026-05-06 09:06 | 50.32567 | 6.01289 | 36812 ft | 448 kts | 118° |
| 2026-05-06 09:07 | 50.29819 | 6.10046 | 36807 ft | 448 kts | 118° |
| 2026-05-06 09:07 | 50.27076 | 6.18807 | 36807 ft | 449 kts | 118° |
| 2026-05-06 09:08 | 50.24319 | 6.27547 | 36790 ft | 449 kts | 118° |
| 2026-05-06 09:08 | 50.21542 | 6.36296 | 36791 ft | 449 kts | 119° |
| 2026-05-06 09:09 | 50.18671 | 6.44931 | 36762 ft | 447 kts | 126° |
| 2026-05-06 09:09 | 50.14828 | 6.52466 | 36762 ft | 443 kts | 133° |
| 2026-05-06 09:10 | 50.10844 | 6.59820 | 36760 ft | 444 kts | 133° |
| 2026-05-06 09:10 | 50.06891 | 6.67124 | 36769 ft | 444 kts | 133° |
| 2026-05-06 09:11 | 50.02902 | 6.74475 | 36769 ft | 444 kts | 133° |
| 2026-05-06 09:11 | 49.98909 | 6.81814 | 36766 ft | 444 kts | 133° |
| 2026-05-06 09:12 | 49.94911 | 6.89139 | 36757 ft | 444 kts | 133° |
| 2026-05-06 09:12 | 49.90911 | 6.96450 | 36759 ft | 444 kts | 133° |
| 2026-05-06 09:13 | 49.86903 | 7.03751 | 36765 ft | 444 kts | 133° |
| 2026-05-06 09:13 | 49.82893 | 7.11037 | 36770 ft | 444 kts | 133° |
| 2026-05-06 09:14 | 49.78897 | 7.18276 | 36769 ft | 444 kts | 133° |
| 2026-05-06 09:14 | 49.74874 | 7.25536 | 36754 ft | 444 kts | 134° |
| 2026-05-06 09:15 | 49.70850 | 7.32784 | 36761 ft | 444 kts | 134° |
| 2026-05-06 09:15 | 49.66825 | 7.40010 | 36765 ft | 444 kts | 134° |
| 2026-05-06 09:16 | 49.62802 | 7.47234 | 36783 ft | 444 kts | 134° |
| 2026-05-06 09:16 | 49.58770 | 7.54438 | 36797 ft | 443 kts | 134° |
| 2026-05-06 09:17 | 49.54723 | 7.61630 | 36794 ft | 443 kts | 134° |
| 2026-05-06 09:17 | 49.50714 | 7.68752 | 36785 ft | 443 kts | 135° |
| 2026-05-06 09:18 | 49.46676 | 7.75911 | 36795 ft | 443 kts | 135° |
| 2026-05-06 09:18 | 49.42637 | 7.83045 | 36793 ft | 442 kts | 135° |
| 2026-05-06 09:19 | 49.38602 | 7.90170 | 36796 ft | 442 kts | 135° |
| 2026-05-06 09:19 | 49.34561 | 7.97269 | 36797 ft | 442 kts | 135° |
| 2026-05-06 09:20 | 49.30509 | 8.04358 | 36782 ft | 441 kts | 135° |
| 2026-05-06 09:20 | 49.26460 | 8.11432 | 36783 ft | 442 kts | 135° |
| 2026-05-06 09:21 | 49.22404 | 8.18502 | 36778 ft | 442 kts | 135° |
| 2026-05-06 09:21 | 49.18331 | 8.25571 | 36779 ft | 443 kts | 135° |
| 2026-05-06 09:22 | 49.14280 | 8.32592 | 36782 ft | 444 kts | 135° |
| 2026-05-06 09:22 | 49.10191 | 8.39660 | 36788 ft | 444 kts | 135° |
| 2026-05-06 09:23 | 49.06096 | 8.46721 | 36793 ft | 444 kts | 135° |
| 2026-05-06 09:23 | 49.01989 | 8.53786 | 36800 ft | 445 kts | 135° |
| 2026-05-06 09:24 | 48.97894 | 8.60845 | 36802 ft | 445 kts | 135° |
| 2026-05-06 09:24 | 48.93907 | 8.68081 | 36798 ft | 447 kts | 133° |
| 2026-05-06 09:25 | 48.89952 | 8.75387 | 36800 ft | 448 kts | 134° |
| 2026-05-06 09:25 | 48.85969 | 8.82659 | 36789 ft | 448 kts | 135° |
| 2026-05-06 09:26 | 48.81959 | 8.89888 | 36799 ft | 448 kts | 135° |
| 2026-05-06 09:26 | 48.77967 | 8.97059 | 36806 ft | 448 kts | 135° |
| 2026-05-06 09:27 | 48.73950 | 9.04275 | 36812 ft | 448 kts | 135° |
| 2026-05-06 09:27 | 48.69932 | 9.11485 | 36819 ft | 447 kts | 135° |
| 2026-05-06 09:28 | 48.65916 | 9.18657 | 36808 ft | 446 kts | 136° |
| 2026-05-06 09:28 | 48.61490 | 9.25047 | 36820 ft | 434 kts | 152° |
| 2026-05-06 09:29 | 48.56141 | 9.28851 | 36820 ft | 422 kts | 166° |
| 2026-05-06 09:29 | 48.50577 | 9.31676 | 36812 ft | 422 kts | 166° |
| 2026-05-06 09:29 | 48.47796 | 9.33105 | 36459 ft | 423 kts | 166° |
| 2026-05-06 09:30 | 48.45015 | 9.34532 | 35905 ft | 421 kts | 166° |
| 2026-05-06 09:30 | 48.42259 | 9.35943 | 35346 ft | 417 kts | 167° |
| 2026-05-06 09:30 | 48.39513 | 9.37347 | 34811 ft | 415 kts | 167° |
| 2026-05-06 09:30 | 48.36825 | 9.38721 | 34313 ft | 412 kts | 167° |
| 2026-05-06 09:31 | 48.34122 | 9.40103 | 33824 ft | 409 kts | 167° |
| 2026-05-06 09:31 | 48.31429 | 9.41474 | 33250 ft | 407 kts | 167° |
| 2026-05-06 09:31 | 48.28759 | 9.42833 | 32682 ft | 403 kts | 167° |
| 2026-05-06 09:31 | 48.26117 | 9.44174 | 32124 ft | 399 kts | 167° |
| 2026-05-06 09:32 | 48.23506 | 9.45496 | 31544 ft | 394 kts | 167° |
| 2026-05-06 09:32 | 48.20913 | 9.46807 | 31010 ft | 391 kts | 167° |
| 2026-05-06 09:32 | 48.18347 | 9.48106 | 30485 ft | 387 kts | 167° |
| 2026-05-06 09:32 | 48.15805 | 9.49393 | 29974 ft | 384 kts | 167° |
| 2026-05-06 09:33 | 48.13276 | 9.50672 | 29389 ft | 382 kts | 167° |
| 2026-05-06 09:33 | 48.10803 | 9.51918 | 28834 ft | 378 kts | 166° |
| 2026-05-06 09:33 | 48.08318 | 9.53168 | 28309 ft | 375 kts | 166° |
| 2026-05-06 09:33 | 48.05853 | 9.54408 | 27782 ft | 372 kts | 166° |
| 2026-05-06 09:34 | 48.03421 | 9.55687 | 27277 ft | 371 kts | 162° |
| 2026-05-06 09:34 | 48.01104 | 9.57403 | 26778 ft | 373 kts | 154° |
| 2026-05-06 09:34 | 47.98952 | 9.59587 | 26289 ft | 373 kts | 149° |
| 2026-05-06 09:34 | 47.96860 | 9.61862 | 25808 ft | 371 kts | 149° |
| 2026-05-06 09:35 | 47.94779 | 9.64116 | 25334 ft | 368 kts | 149° |
| 2026-05-06 09:35 | 47.93407 | 9.65599 | 25063 ft | 366 kts | 149° |
| 2026-05-06 09:35 | 47.91350 | 9.67818 | 24675 ft | 364 kts | 149° |
| 2026-05-06 09:35 | 47.89305 | 9.70023 | 24294 ft | 362 kts | 149° |
| 2026-05-06 09:36 | 47.87271 | 9.72212 | 23912 ft | 360 kts | 149° |
| 2026-05-06 09:36 | 47.85250 | 9.74381 | 23537 ft | 357 kts | 148° |
| 2026-05-06 09:36 | 47.83235 | 9.76546 | 23096 ft | 357 kts | 148° |
| 2026-05-06 09:36 | 47.81226 | 9.78706 | 22667 ft | 356 kts | 148° |
| 2026-05-06 09:37 | 47.79225 | 9.80855 | 22231 ft | 353 kts | 148° |
| 2026-05-06 09:37 | 47.77243 | 9.82982 | 21804 ft | 350 kts | 148° |
| 2026-05-06 09:37 | 47.75269 | 9.85099 | 21382 ft | 349 kts | 148° |
| 2026-05-06 09:37 | 47.73313 | 9.87192 | 21017 ft | 344 kts | 149° |
| 2026-05-06 09:38 | 47.71391 | 9.89248 | 20730 ft | 336 kts | 149° |
| 2026-05-06 09:38 | 47.69512 | 9.91259 | 20445 ft | 329 kts | 149° |
| 2026-05-06 09:38 | 47.67672 | 9.93228 | 20160 ft | 323 kts | 149° |
| 2026-05-06 09:38 | 47.65859 | 9.95164 | 19882 ft | 319 kts | 149° |
| 2026-05-06 09:39 | 47.64062 | 9.97076 | 19614 ft | 317 kts | 149° |
| 2026-05-06 09:39 | 47.62271 | 9.98976 | 19346 ft | 316 kts | 149° |
| 2026-05-06 09:39 | 47.60506 | 10.00850 | 19082 ft | 316 kts | 149° |
| 2026-05-06 09:39 | 47.58722 | 10.02744 | 18812 ft | 315 kts | 149° |
| 2026-05-06 09:40 | 47.56942 | 10.04635 | 18547 ft | 315 kts | 150° |
| 2026-05-06 09:40 | 47.55153 | 10.06539 | 18281 ft | 311 kts | 150° |
| 2026-05-06 09:40 | 47.51700 | 10.10208 | 17689 ft | 301 kts | 149° |
| 2026-05-06 09:41 | 47.50015 | 10.11992 | 17444 ft | 294 kts | 149° |
| 2026-05-06 09:41 | 47.48384 | 10.13716 | 17206 ft | 289 kts | 149° |
| 2026-05-06 09:41 | 47.46769 | 10.15448 | 16958 ft | 285 kts | 147° |
| 2026-05-06 09:41 | 47.45284 | 10.17344 | 16816 ft | 279 kts | 142° |
| 2026-05-06 09:42 | 47.43959 | 10.19414 | 16733 ft | 277 kts | 136° |
| 2026-05-06 09:42 | 47.42777 | 10.21656 | 16655 ft | 278 kts | 131° |
| 2026-05-06 09:42 | 47.41732 | 10.24073 | 16579 ft | 280 kts | 127° |
| 2026-05-06 09:42 | 47.40748 | 10.26554 | 16504 ft | 279 kts | 127° |
| 2026-05-06 09:43 | 47.39763 | 10.29028 | 16428 ft | 279 kts | 127° |
| 2026-05-06 09:43 | 47.38778 | 10.31496 | 16350 ft | 279 kts | 127° |
| 2026-05-06 09:43 | 47.37793 | 10.33967 | 16259 ft | 280 kts | 126° |
| 2026-05-06 09:43 | 47.36819 | 10.36411 | 16197 ft | 281 kts | 127° |
| 2026-05-06 09:44 | 47.35835 | 10.38886 | 16116 ft | 279 kts | 127° |
| 2026-05-06 09:44 | 47.34853 | 10.41353 | 16044 ft | 280 kts | 127° |
| 2026-05-06 09:44 | 47.33869 | 10.43818 | 15919 ft | 278 kts | 128° |
| 2026-05-06 09:44 | 47.32890 | 10.46269 | 15802 ft | 277 kts | 128° |
| 2026-05-06 09:45 | 47.31915 | 10.48703 | 15800 ft | 275 kts | 129° |
| 2026-05-06 09:45 | 47.30946 | 10.51112 | 15789 ft | 273 kts | 128° |
| 2026-05-06 09:45 | 47.29977 | 10.53520 | 15789 ft | 274 kts | 128° |
| 2026-05-06 09:45 | 47.29005 | 10.55936 | 15799 ft | 274 kts | 128° |
| 2026-05-06 09:46 | 47.27944 | 10.58236 | 15789 ft | 265 kts | 142° |
| 2026-05-06 09:46 | 47.26486 | 10.59738 | 15794 ft | 251 kts | 164° |
| 2026-05-06 09:46 | 47.24819 | 10.60239 | 15787 ft | 242 kts | 185° |
| 2026-05-06 09:46 | 47.23185 | 10.59747 | 15793 ft | 240 kts | 204° |
| 2026-05-06 09:47 | 47.21801 | 10.58385 | 15801 ft | 243 kts | 223° |
| 2026-05-06 09:47 | 47.20856 | 10.56294 | 15800 ft | 252 kts | 243° |
| 2026-05-06 09:47 | 47.20540 | 10.53726 | 15790 ft | 263 kts | 265° |
| 2026-05-06 09:47 | 47.20990 | 10.51059 | 15800 ft | 278 kts | 288° |
| 2026-05-06 09:48 | 47.21964 | 10.48608 | 15782 ft | 285 kts | 305° |
| 2026-05-06 09:48 | 47.23599 | 10.46885 | 15789 ft | 300 kts | 335° |
| 2026-05-06 09:48 | 47.25701 | 10.46492 | 15808 ft | 314 kts | 7° |
| 2026-05-06 09:48 | 47.27718 | 10.47603 | 15647 ft | 311 kts | 39° |
| 2026-05-06 09:49 | 47.29101 | 10.49963 | 15507 ft | 303 kts | 71° |
| 2026-05-06 09:49 | 47.29561 | 10.52898 | 15477 ft | 289 kts | 100° |
| 2026-05-06 09:49 | 47.29110 | 10.55672 | 15415 ft | 274 kts | 126° |
| 2026-05-06 09:49 | 47.28249 | 10.58173 | 15375 ft | 276 kts | 123° |
| 2026-05-06 09:50 | 47.27499 | 10.60786 | 15312 ft | 278 kts | 120° |
| 2026-05-06 09:50 | 47.26811 | 10.63456 | 15271 ft | 278 kts | 118° |
| 2026-05-06 09:50 | 47.26151 | 10.66122 | 15219 ft | 278 kts | 118° |
| 2026-05-06 09:50 | 47.25496 | 10.68781 | 15169 ft | 275 kts | 119° |
| 2026-05-06 09:51 | 47.24834 | 10.71432 | 15119 ft | 276 kts | 119° |
| 2026-05-06 09:51 | 47.24164 | 10.74078 | 15068 ft | 277 kts | 119° |
| 2026-05-06 09:51 | 47.23488 | 10.76728 | 15033 ft | 276 kts | 119° |
| 2026-05-06 09:51 | 47.22802 | 10.79388 | 14976 ft | 285 kts | 119° |
| 2026-05-06 09:52 | 47.22050 | 10.82235 | 14907 ft | 306 kts | 120° |
| 2026-05-06 09:52 | 47.21286 | 10.85148 | 14855 ft | 311 kts | 119° |
| 2026-05-06 09:52 | 47.20512 | 10.88133 | 14812 ft | 311 kts | 119° |
| 2026-05-06 09:52 | 47.19744 | 10.91107 | 14771 ft | 311 kts | 119° |
| 2026-05-06 09:53 | 47.18978 | 10.94076 | 14723 ft | 311 kts | 119° |
| 2026-05-06 09:53 | 47.18209 | 10.97046 | 14673 ft | 310 kts | 119° |
| 2026-05-06 09:53 | 47.17470 | 11.00038 | 14621 ft | 315 kts | 112° |
| 2026-05-06 09:53 | 47.17140 | 11.03272 | 14574 ft | 322 kts | 104° |
| 2026-05-06 09:54 | 47.16891 | 11.06536 | 14521 ft | 323 kts | 104° |
| 2026-05-06 09:54 | 47.16647 | 11.09818 | 14475 ft | 323 kts | 104° |
| 2026-05-06 09:54 | 47.16406 | 11.13094 | 14441 ft | 322 kts | 104° |
| 2026-05-06 09:54 | 47.16166 | 11.16360 | 14390 ft | 320 kts | 104° |
| 2026-05-06 09:55 | 47.15926 | 11.19583 | 14305 ft | 311 kts | 104° |
| 2026-05-06 09:55 | 47.15696 | 11.22668 | 14278 ft | 297 kts | 104° |
| 2026-05-06 09:55 | 47.15473 | 11.25635 | 14241 ft | 286 kts | 104° |
| 2026-05-06 09:55 | 47.15255 | 11.28514 | 14218 ft | 282 kts | 106° |
| 2026-05-06 09:56 | 47.15035 | 11.31332 | 14186 ft | 281 kts | 104° |
| 2026-05-06 09:56 | 47.14808 | 11.34186 | 14171 ft | 281 kts | 105° |
| 2026-05-06 09:56 | 47.14583 | 11.37034 | 14142 ft | 281 kts | 104° |
| 2026-05-06 09:56 | 47.14356 | 11.39897 | 14127 ft | 281 kts | 105° |
| 2026-05-06 09:57 | 47.14133 | 11.42743 | 14099 ft | 280 kts | 105° |
| 2026-05-06 09:57 | 47.13909 | 11.45589 | 14077 ft | 280 kts | 105° |
| 2026-05-06 09:57 | 47.13686 | 11.48430 | 14054 ft | 280 kts | 105° |
| 2026-05-06 09:57 | 47.13462 | 11.51272 | 14038 ft | 280 kts | 105° |
| 2026-05-06 09:58 | 47.13237 | 11.54118 | 14016 ft | 280 kts | 105° |
| 2026-05-06 09:58 | 47.13012 | 11.56961 | 13904 ft | 280 kts | 105° |
| 2026-05-06 09:58 | 47.12788 | 11.59757 | 13808 ft | 279 kts | 105° |
| 2026-05-06 09:58 | 47.12557 | 11.62592 | 13819 ft | 281 kts | 104° |
| 2026-05-06 09:59 | 47.12325 | 11.65448 | 13810 ft | 280 kts | 104° |
| 2026-05-06 09:59 | 47.12112 | 11.68196 | 13824 ft | 265 kts | 104° |
| 2026-05-06 09:59 | 47.12061 | 11.70902 | 13815 ft | 267 kts | 93° |
| 2026-05-06 09:59 | 47.12338 | 11.73612 | 13817 ft | 271 kts | 82° |
| 2026-05-06 10:00 | 47.12954 | 11.76253 | 13809 ft | 276 kts | 70° |
| 2026-05-06 10:00 | 47.13905 | 11.78728 | 13824 ft | 281 kts | 59° |
| 2026-05-06 10:00 | 47.15178 | 11.80940 | 13834 ft | 285 kts | 47° |
| 2026-05-06 10:00 | 47.16594 | 11.82983 | 13728 ft | 286 kts | 47° |
| 2026-05-06 10:01 | 47.18032 | 11.85072 | 13093 ft | 295 kts | 47° |
| 2026-05-06 10:01 | 47.19587 | 11.87049 | 12453 ft | 296 kts | 37° |
| 2026-05-06 10:01 | 47.21344 | 11.88635 | 11914 ft | 295 kts | 26° |
| 2026-05-06 10:01 | 47.23177 | 11.89731 | 11786 ft | 271 kts | 19° |
| 2026-05-06 10:02 | 47.24760 | 11.90961 | 11792 ft | 247 kts | 39° |
| 2026-05-06 10:02 | 47.26216 | 11.92244 | 11852 ft | 244 kts | 15° |
| 2026-05-06 10:02 | 47.27832 | 11.92286 | 11779 ft | 227 kts | 342° |
| 2026-05-06 10:02 | 47.29252 | 11.91403 | 11776 ft | 218 kts | 321° |
| 2026-05-06 10:03 | 47.30478 | 11.90083 | 11451 ft | 218 kts | 318° |
| 2026-05-06 10:03 | 47.31706 | 11.88772 | 11107 ft | 218 kts | 319° |
| 2026-05-06 10:03 | 47.32934 | 11.87478 | 10751 ft | 216 kts | 319° |
| 2026-05-06 10:03 | 47.34135 | 11.86208 | 10391 ft | 214 kts | 317° |
| 2026-05-06 10:04 | 47.35164 | 11.84679 | 10033 ft | 208 kts | 301° |
| 2026-05-06 10:04 | 47.35881 | 11.82872 | 9663 ft | 202 kts | 286° |
| 2026-05-06 10:04 | 47.36267 | 11.80946 | 9454 ft | 193 kts | 273° |
| 2026-05-06 10:04 | 47.36347 | 11.78971 | 9047 ft | 189 kts | 259° |
| 2026-05-06 10:05 | 47.36130 | 11.77086 | 8739 ft | 184 kts | 245° |
| 2026-05-06 10:05 | 47.35695 | 11.75390 | 8445 ft | 174 kts | 242° |
| 2026-05-06 10:05 | 47.35236 | 11.73736 | 8176 ft | 173 kts | 242° |
| 2026-05-06 10:05 | 47.34784 | 11.72101 | 7908 ft | 172 kts | 241° |
| 2026-05-06 10:06 | 47.34326 | 11.70458 | 7633 ft | 174 kts | 244° |
| 2026-05-06 10:06 | 47.33866 | 11.68807 | 7360 ft | 174 kts | 243° |
| 2026-05-06 10:06 | 47.33412 | 11.67166 | 7092 ft | 172 kts | 244° |
| 2026-05-06 10:06 | 47.32959 | 11.65539 | 6821 ft | 171 kts | 244° |
| 2026-05-06 10:07 | 47.32520 | 11.63959 | 6555 ft | 166 kts | 244° |
| 2026-05-06 10:07 | 47.32082 | 11.62378 | 6293 ft | 168 kts | 244° |
| 2026-05-06 10:07 | 47.31633 | 11.60772 | 6015 ft | 171 kts | 246° |
| 2026-05-06 10:07 | 47.31183 | 11.59160 | 5749 ft | 170 kts | 243° |
| 2026-05-06 10:08 | 47.30733 | 11.57554 | 5474 ft | 170 kts | 245° |
| 2026-05-06 10:08 | 47.30277 | 11.55928 | 5209 ft | 174 kts | 244° |
| 2026-05-06 10:08 | 47.29808 | 11.54259 | 4921 ft | 178 kts | 243° |
| 2026-05-06 10:08 | 47.29330 | 11.52562 | 4634 ft | 180 kts | 244° |
| 2026-05-06 10:09 | 47.28855 | 11.50871 | 4347 ft | 174 kts | 244° |
| 2026-05-06 10:09 | 47.28407 | 11.49264 | 4084 ft | 165 kts | 242° |
| 2026-05-06 10:09 | 47.27983 | 11.47750 | 3838 ft | 155 kts | 243° |
| 2026-05-06 10:09 | 47.27577 | 11.46305 | 3592 ft | 151 kts | 246° |
| 2026-05-06 10:10 | 47.27187 | 11.44893 | 3358 ft | 147 kts | 249° |
| 2026-05-06 10:10 | 47.26984 | 11.43423 | 3133 ft | 148 kts | 259° |
| 2026-05-06 10:10 | 47.26827 | 11.41927 | 2895 ft | 148 kts | 259° |
| 2026-05-06 10:10 | 47.26672 | 11.40460 | 2671 ft | 147 kts | 259° |
| 2026-05-06 10:11 | 47.26512 | 11.38966 | 2386 ft | 153 kts | 255° |
| 2026-05-06 10:11 | 47.26348 | 11.37369 | 2210 ft | 160 kts | 261° |
| 2026-05-06 10:11 | 47.26169 | 11.35741 | 1924 ft | 162 kts | 257° |
| 2026-05-06 10:11 | 47.26010 | 11.34251 | 1904 ft | 113 kts | 261° |
| 2026-05-06 10:12 | 47.25930 | 11.33552 | 1903 ft | 26 kts | 262° |
| 2026-05-06 10:12 | 47.25908 | 11.33338 | 1899 ft | 31 kts | 258° |
| 2026-05-06 10:12 | 47.25838 | 11.33112 | 1899 ft | 21 kts | 276° |
| 2026-05-06 10:12 | 47.25890 | 11.33076 | 1905 ft | 10 kts | 48° |
| 2026-05-06 10:13 | 47.25900 | 11.33234 | 1906 ft | 24 kts | 78° |
| 2026-05-06 10:13 | 47.25927 | 11.33548 | 1905 ft | 37 kts | 82° |
| 2026-05-06 10:13 | 47.25972 | 11.33967 | 1909 ft | 43 kts | 80° |
| 2026-05-06 10:13 | 47.26014 | 11.34375 | 1901 ft | 38 kts | 79° |
| 2026-05-06 10:14 | 47.26056 | 11.34740 | 1906 ft | 35 kts | 81° |
| 2026-05-06 10:14 | 47.26094 | 11.35069 | 1901 ft | 31 kts | 81° |
| 2026-05-06 10:14 | 47.26077 | 11.35252 | 1907 ft | 12 kts | 149° |
| 2026-05-06 10:14 | 47.25984 | 11.35275 | 1901 ft | 15 kts | 169° |
| 2026-05-06 10:15 | 47.25903 | 11.35246 | 1907 ft | 11 kts | 256° |
| 2026-05-06 10:15 | 47.25888 | 11.35140 | 1907 ft | 10 kts | 265° |
| 2026-05-06 10:15 | 47.25851 | 11.35107 | 1906 ft | 6 kts | 178° |
| 2026-05-06 10:15 | 47.25819 | 11.35111 | 1907 ft | 0 kts | 172° |